Time;durP1;ratioP1;P1;durP2;ratioP2;P2;SDS_P1;SDS_P2;PMS_P1;PMS_P2;Temp;Humidity;BMP_temperature;BMP_pressure;BME280_temperature;BME280_humidity;BME280_pressure;Samples;Min_cycle;Max_cycle;Signal;HPM_P1;HPM_P2
2023/06/19 00:01:29;;;;;;;11.20;10.00;;;23.10;79.10;;;;;;4984485;28;20129;-61
2023/06/19 00:03:54;;;;;;;12.82;9.90;;;23.10;79.00;;;;;;4978360;28;20062;-63
2023/06/19 00:06:20;;;;;;;11.02;9.82;;;23.00;78.80;;;;;;4983536;28;20030;-62
2023/06/19 00:08:46;;;;;;;13.55;9.93;;;23.10;78.90;;;;;;4982481;28;20432;-62
2023/06/19 00:11:11;;;;;;;11.95;10.20;;;23.00;78.70;;;;;;4981037;28;20065;-61
2023/06/19 00:13:37;;;;;;;15.70;10.13;;;23.00;78.80;;;;;;4976402;28;20073;-62
2023/06/19 00:16:02;;;;;;;13.85;10.40;;;23.00;78.80;;;;;;4983815;28;20050;-62
2023/06/19 00:18:28;;;;;;;13.75;9.43;;;22.90;78.80;;;;;;4984234;28;20038;-62
2023/06/19 00:20:55;;;;;;;12.10;9.85;;;22.90;78.60;;;;;;4972101;28;20613;-62
2023/06/19 00:23:22;;;;;;;12.35;9.75;;;22.90;78.70;;;;;;4981915;28;20042;-62
2023/06/19 00:25:48;;;;;;;11.82;10.27;;;22.90;78.70;;;;;;4980259;28;20481;-62
2023/06/19 00:28:14;;;;;;;11.15;9.90;;;22.90;78.50;;;;;;4980620;28;20193;-62
2023/06/19 00:30:40;;;;;;;12.68;9.88;;;22.90;78.60;;;;;;4974425;28;20508;-61
2023/06/19 00:33:07;;;;;;;12.98;10.25;;;23.00;78.40;;;;;;4983542;28;20026;-61
2023/06/19 00:35:33;;;;;;;11.20;9.55;;;23.00;78.30;;;;;;4984060;28;20038;-63
2023/06/19 00:38:01;;;;;;;12.10;10.02;;;23.00;78.10;;;;;;4972221;28;20049;-62
2023/06/19 00:40:31;;;;;;;15.88;10.10;;;23.00;77.90;;;;;;4979659;28;20607;-62
2023/06/19 00:42:57;;;;;;;11.85;10.00;;;23.10;77.60;;;;;;4983259;28;20050;-63
2023/06/19 00:45:26;;;;;;;13.38;9.98;;;23.10;77.30;;;;;;4975293;28;20046;-62
2023/06/19 00:47:53;;;;;;;13.05;9.82;;;23.10;77.00;;;;;;4978614;28;20050;-61
2023/06/19 00:50:20;;;;;;;11.52;9.40;;;23.20;76.60;;;;;;4983162;28;20038;-62
2023/06/19 00:52:45;;;;;;;13.27;9.85;;;23.20;76.50;;;;;;4975607;28;20108;-62
2023/06/19 00:55:12;;;;;;;13.80;10.00;;;23.10;76.40;;;;;;4973428;28;20524;-63
2023/06/19 00:57:39;;;;;;;15.23;9.95;;;23.10;76.40;;;;;;4982394;28;20042;-62
2023/06/19 01:00:06;;;;;;;11.38;9.85;;;23.10;76.40;;;;;;4983774;28;20046;-62
2023/06/19 01:02:32;;;;;;;11.70;10.35;;;23.10;76.50;;;;;;4974254;28;20035;-62
2023/06/19 01:04:58;;;;;;;14.90;10.80;;;23.10;76.70;;;;;;4979130;28;20042;-62
2023/06/19 01:07:32;;;;;;;14.40;10.52;;;23.00;76.90;;;;;;4982290;28;20054;-61
2023/06/19 01:10:04;;;;;;;12.48;10.13;;;23.00;76.70;;;;;;4972061;28;20046;-63
2023/06/19 01:13:00;;;;;;;11.73;9.40;;;22.90;77.00;;;;;;4971427;28;20041;-61
2023/06/19 01:15:26;;;;;;;12.40;9.93;;;22.80;77.30;;;;;;4982838;28;20065;-63
2023/06/19 01:17:53;;;;;;;14.70;10.60;;;22.80;77.50;;;;;;4982461;28;20042;-61
2023/06/19 01:20:19;;;;;;;12.13;10.50;;;22.80;77.70;;;;;;4975368;28;20823;-63
2023/06/19 01:22:44;;;;;;;12.52;9.95;;;22.70;77.80;;;;;;4983415;28;20509;-61
2023/06/19 01:25:13;;;;;;;14.02;10.02;;;22.70;78.00;;;;;;4986885;28;20065;-62
2023/06/19 01:27:40;;;;;;;11.57;10.30;;;22.70;78.20;;;;;;4980745;28;20050;-62
2023/06/19 01:30:06;;;;;;;12.13;9.50;;;22.60;78.40;;;;;;4984084;28;20030;-62
2023/06/19 01:32:41;;;;;;;12.40;9.68;;;22.60;78.70;;;;;;4986866;28;20039;-62
2023/06/19 01:35:09;;;;;;;12.85;10.15;;;22.60;79.00;;;;;;4977050;28;20140;-62
2023/06/19 01:37:37;;;;;;;13.73;10.00;;;22.60;79.10;;;;;;4978757;28;20053;-61
2023/06/19 01:40:05;;;;;;;12.95;9.95;;;22.50;79.20;;;;;;4986646;28;20549;-62
2023/06/19 01:42:32;;;;;;;13.93;9.90;;;22.50;79.70;;;;;;4977074;28;20085;-62
2023/06/19 01:44:58;;;;;;;20.25;10.23;;;22.50;80.30;;;;;;4978000;28;20042;-62
2023/06/19 01:47:23;;;;;;;14.38;10.30;;;22.40;79.90;;;;;;4983227;28;20054;-61
2023/06/19 01:49:49;;;;;;;11.60;9.70;;;22.40;80.10;;;;;;4985368;28;20041;-63
2023/06/19 01:52:15;;;;;;;12.73;9.82;;;22.40;80.30;;;;;;4986399;28;20038;-61
2023/06/19 01:54:40;;;;;;;11.93;9.55;;;22.40;80.40;;;;;;4975498;28;20184;-63
2023/06/19 01:57:06;;;;;;;11.18;9.70;;;22.30;80.70;;;;;;4985886;28;20044;-61
2023/06/19 01:59:32;;;;;;;13.90;10.20;;;22.30;80.90;;;;;;4985649;28;20060;-63
2023/06/19 02:01:57;;;;;;;12.27;10.48;;;22.30;81.00;;;;;;4972805;28;20046;-63
2023/06/19 02:04:23;;;;;;;10.77;9.65;;;22.30;81.20;;;;;;4980174;28;20034;-62
2023/06/19 02:06:48;;;;;;;11.95;10.10;;;22.20;81.30;;;;;;4986632;28;20048;-61
2023/06/19 02:09:14;;;;;;;12.77;10.05;;;22.20;81.50;;;;;;4979489;28;20080;-62
2023/06/19 02:11:40;;;;;;;13.75;10.32;;;22.20;81.80;;;;;;4983945;28;20034;-63
2023/06/19 02:14:05;;;;;;;13.95;9.77;;;22.20;82.00;;;;;;4985953;28;20046;-63
2023/06/19 02:16:31;;;;;;;12.70;10.32;;;22.20;82.00;;;;;;4983266;28;20501;-62
2023/06/19 02:18:56;;;;;;;13.50;10.35;;;22.20;82.10;;;;;;4978094;28;20066;-62
2023/06/19 02:21:22;;;;;;;11.55;10.20;;;22.20;82.50;;;;;;4984749;28;20038;-62
2023/06/19 02:23:48;;;;;;;12.60;11.02;;;22.20;83.00;;;;;;4985935;28;20096;-61
2023/06/19 02:26:13;;;;;;;16.20;11.02;;;22.10;83.90;;;;;;4982793;28;20050;-63
2023/06/19 02:28:39;;;;;;;13.40;10.70;;;22.00;84.70;;;;;;4969586;28;20094;-62
2023/06/19 02:31:05;;;;;;;11.40;10.07;;;22.00;85.30;;;;;;4983556;28;20039;-62
2023/06/19 02:33:32;;;;;;;13.07;10.77;;;22.00;85.60;;;;;;4983341;28;20038;-61
2023/06/19 02:35:58;;;;;;;11.23;9.88;;;22.00;85.80;;;;;;4981856;28;20050;-62
2023/06/19 02:38:25;;;;;;;12.73;9.73;;;22.00;86.20;;;;;;4984967;28;20433;-62
2023/06/19 02:40:51;;;;;;;12.30;9.82;;;22.00;86.40;;;;;;4985878;28;20409;-62
2023/06/19 02:43:16;;;;;;;13.35;9.73;;;22.10;86.30;;;;;;4981985;28;20038;-62
2023/06/19 02:45:42;;;;;;;14.32;9.73;;;22.00;86.70;;;;;;4984339;28;20037;-63
2023/06/19 02:48:08;;;;;;;12.55;10.35;;;22.00;86.90;;;;;;4984728;28;20061;-62
2023/06/19 02:50:34;;;;;;;12.88;9.60;;;22.00;87.30;;;;;;4972323;28;20034;-62
2023/06/19 02:52:59;;;;;;;13.63;9.63;;;21.90;87.60;;;;;;4971274;28;20039;-63
2023/06/19 02:55:25;;;;;;;14.15;9.65;;;22.00;88.00;;;;;;4985303;28;20511;-61
2023/06/19 02:57:51;;;;;;;12.40;9.93;;;21.90;88.30;;;;;;4984969;28;20061;-61
2023/06/19 03:00:17;;;;;;;13.45;9.80;;;21.90;88.60;;;;;;4973096;28;20062;-61
2023/06/19 03:02:44;;;;;;;12.30;10.35;;;21.90;89.20;;;;;;4983152;28;20038;-62
2023/06/19 03:05:10;;;;;;;11.90;9.95;;;21.90;89.40;;;;;;4978935;28;20038;-62
2023/06/19 03:07:36;;;;;;;11.52;9.48;;;21.90;89.90;;;;;;4979010;28;20085;-62
2023/06/19 03:10:02;;;;;;;10.07;9.05;;;21.80;90.00;;;;;;4982745;28;20046;-62
2023/06/19 03:12:27;;;;;;;13.18;9.85;;;21.80;90.00;;;;;;4984891;28;20100;-61
2023/06/19 03:14:53;;;;;;;11.20;9.45;;;21.80;90.30;;;;;;4980059;28;20034;-62
2023/06/19 03:17:18;;;;;;;10.25;9.07;;;21.80;90.70;;;;;;4974884;28;20137;-62
2023/06/19 03:19:44;;;;;;;11.38;9.18;;;21.70;90.70;;;;;;4984680;28;20097;-61
2023/06/19 03:22:09;;;;;;;10.32;9.07;;;21.80;90.80;;;;;;4983830;28;20443;-63
2023/06/19 03:24:35;;;;;;;11.70;9.32;;;21.70;91.10;;;;;;4972858;28;20031;-62
2023/06/19 03:27:00;;;;;;;13.32;8.95;;;21.80;91.20;;;;;;4993466;28;20037;-62
2023/06/19 03:29:26;;;;;;;11.88;8.75;;;21.80;91.30;;;;;;4991026;28;20412;-62
2023/06/19 03:31:51;;;;;;;11.32;8.73;;;21.80;91.60;;;;;;4983626;28;20117;-62
2023/06/19 03:34:17;;;;;;;10.43;8.73;;;21.80;91.80;;;;;;4976077;28;20042;-63
2023/06/19 03:36:42;;;;;;;10.93;8.38;;;21.70;91.90;;;;;;4967359;28;20045;-62
2023/06/19 03:39:08;;;;;;;10.52;8.38;;;21.70;91.80;;;;;;4979055;28;20073;-62
2023/06/19 03:41:34;;;;;;;10.10;8.23;;;21.70;92.00;;;;;;4967399;28;20043;-62
2023/06/19 03:43:59;;;;;;;11.93;8.45;;;21.80;92.40;;;;;;4976148;28;20038;-62
2023/06/19 03:46:25;;;;;;;9.32;7.47;;;21.70;92.50;;;;;;4984822;28;20092;-62
2023/06/19 03:48:50;;;;;;;10.07;7.55;;;21.70;92.90;;;;;;4980137;28;20082;-61
2023/06/19 03:51:16;;;;;;;9.55;7.68;;;21.70;92.50;;;;;;4977862;28;20041;-63
2023/06/19 03:53:42;;;;;;;8.50;6.80;;;21.70;92.60;;;;;;4983553;28;20497;-62
2023/06/19 03:56:07;;;;;;;8.40;7.20;;;21.60;93.30;;;;;;5017176;23;20045;-74
2023/06/19 04:11:23;;;;;;;8.25;6.30;;;21.50;93.60;;;;;;4955746;28;20069;-73
2023/06/19 04:13:49;;;;;;;7.95;5.88;;;21.40;94.10;;;;;;4967109;28;20551;-70
2023/06/19 04:16:15;;;;;;;7.10;5.10;;;21.40;94.30;;;;;;4964744;28;20043;-70
2023/06/19 04:18:40;;;;;;;8.88;5.25;;;21.40;94.40;;;;;;4964760;28;20053;-70
2023/06/19 04:21:06;;;;;;;7.57;5.70;;;21.30;94.90;;;;;;4966335;28;20050;-70
2023/06/19 04:23:31;;;;;;;8.75;5.18;;;21.30;94.90;;;;;;4988025;23;20049;-63
2023/06/19 04:25:57;;;;;;;7.53;5.10;;;21.20;95.10;;;;;;4982922;28;20030;-62
2023/06/19 04:28:22;;;;;;;7.20;5.18;;;21.20;95.70;;;;;;4991143;28;20484;-63
2023/06/19 04:30:48;;;;;;;7.57;4.88;;;21.20;95.60;;;;;;4971915;28;20478;-62
2023/06/19 04:33:13;;;;;;;8.18;5.07;;;21.20;95.80;;;;;;4981148;28;20034;-62
2023/06/19 04:35:42;;;;;;;8.52;5.25;;;21.30;96.30;;;;;;4989224;28;20034;-64
2023/06/19 04:38:08;;;;;;;7.50;5.10;;;21.40;96.10;;;;;;4979740;28;20090;-64
2023/06/19 04:40:34;;;;;;;8.13;4.63;;;21.50;96.20;;;;;;4980687;28;20053;-63
2023/06/19 04:43:02;;;;;;;6.53;4.75;;;21.50;96.20;;;;;;4979069;28;20046;-64
2023/06/19 04:45:28;;;;;;;7.13;4.50;;;21.60;96.60;;;;;;5006253;28;20082;-63
2023/06/19 04:47:53;;;;;;;6.05;4.32;;;21.50;96.60;;;;;;4975236;28;20126;-63
2023/06/19 04:50:20;;;;;;;6.60;4.40;;;21.50;97.60;;;;;;4986010;28;20149;-62
2023/06/19 04:52:45;;;;;;;5.25;4.15;;;21.50;97.30;;;;;;4981854;28;20046;-64
2023/06/19 04:55:11;;;;;;;7.95;4.45;;;21.40;97.60;;;;;;4972368;28;20057;-64
2023/06/19 04:57:39;;;;;;;7.07;4.65;;;21.40;97.60;;;;;;4969866;28;20580;-63
2023/06/19 05:00:06;;;;;;;6.75;4.80;;;21.20;97.90;;;;;;4963833;28;20121;-63
2023/06/19 05:02:33;;;;;;;7.72;4.68;;;21.20;98.00;;;;;;4973110;28;20066;-64
2023/06/19 05:05:02;;;;;;;7.88;4.80;;;21.10;98.50;;;;;;4963548;28;20085;-63
2023/06/19 05:07:31;;;;;;;5.50;4.78;;;21.00;98.90;;;;;;4940596;28;20057;-60
2023/06/19 05:10:00;;;;;;;9.43;5.20;;;21.00;99.50;;;;;;4991322;28;20033;-64
2023/06/19 05:12:26;;;;;;;7.35;4.63;;;20.90;99.80;;;;;;5000924;28;20617;-60
2023/06/19 05:14:52;;;;;;;7.32;5.03;;;20.80;99.80;;;;;;5001949;28;20034;-65
2023/06/19 05:17:17;;;;;;;7.50;4.90;;;20.90;99.90;;;;;;4980808;28;20074;-63
2023/06/19 05:19:43;;;;;;;8.05;4.72;;;20.90;99.90;;;;;;4972776;28;20121;-61
2023/06/19 05:22:08;;;;;;;6.85;4.95;;;20.90;99.90;;;;;;4969772;28;20080;-65
2023/06/19 05:24:34;;;;;;;7.97;5.32;;;20.90;99.90;;;;;;4976794;28;20038;-61
2023/06/19 05:27:00;;;;;;;7.65;5.00;;;21.00;99.90;;;;;;4985825;28;20038;-65
2023/06/19 05:29:25;;;;;;;7.35;5.03;;;21.00;99.90;;;;;;4986158;28;21012;-61
2023/06/19 05:31:51;;;;;;;6.75;5.18;;;21.10;99.90;;;;;;4969246;28;20039;-64
2023/06/19 05:34:17;;;;;;;5.57;4.30;;;21.10;99.90;;;;;;4972200;28;20089;-64
2023/06/19 05:36:44;;;;;;;6.55;5.18;;;21.10;99.90;;;;;;4985033;28;20033;-63
2023/06/19 05:39:10;;;;;;;6.88;4.93;;;21.20;99.90;;;;;;4971339;28;20046;-65
2023/06/19 05:41:36;;;;;;;6.28;5.10;;;21.20;99.90;;;;;;4980746;28;20048;-61
2023/06/19 05:44:01;;;;;;;8.43;4.93;;;21.30;99.90;;;;;;4982953;28;20053;-64
2023/06/19 05:46:27;;;;;;;8.05;5.00;;;21.40;99.90;;;;;;4971736;28;20047;-60
2023/06/19 05:48:54;;;;;;;6.55;5.38;;;21.40;99.90;;;;;;4973932;28;20038;-65
2023/06/19 05:51:20;;;;;;;8.23;5.30;;;21.50;99.90;;;;;;4989734;28;20434;-60
2023/06/19 05:53:46;;;;;;;7.43;4.60;;;21.50;99.90;;;;;;4995192;28;20034;-64
2023/06/19 05:56:12;;;;;;;6.68;4.75;;;21.50;99.90;;;;;;4978463;28;20060;-64
2023/06/19 05:58:39;;;;;;;5.45;4.82;;;21.60;99.90;;;;;;4987033;28;20038;-64
2023/06/19 06:01:04;;;;;;;6.20;4.95;;;21.70;99.90;;;;;;4979936;28;20043;-64
2023/06/19 06:03:30;;;;;;;7.85;4.72;;;21.70;99.90;;;;;;4963788;28;20503;-64
2023/06/19 06:06:02;;;;;;;6.00;4.15;;;21.80;99.90;;;;;;4990142;28;20050;-64
2023/06/19 06:08:31;;;;;;;7.20;4.85;;;21.80;99.90;;;;;;4993827;28;20026;-64
2023/06/19 06:10:56;;;;;;;8.52;5.43;;;21.70;99.90;;;;;;4996790;28;20062;-64
2023/06/19 06:13:22;;;;;;;6.35;5.03;;;21.60;99.90;;;;;;4978056;28;20062;-64
2023/06/19 06:15:48;;;;;;;7.38;5.30;;;21.60;99.90;;;;;;4981280;28;20062;-62
2023/06/19 06:18:13;;;;;;;8.45;5.50;;;21.60;99.90;;;;;;5002653;28;20042;-64
2023/06/19 06:20:39;;;;;;;6.40;5.28;;;21.70;99.90;;;;;;5011103;28;20104;-64
2023/06/19 06:23:05;;;;;;;7.38;5.57;;;21.70;99.90;;;;;;5005951;28;20073;-65
2023/06/19 06:25:30;;;;;;;8.60;5.95;;;21.80;99.90;;;;;;4997138;28;20049;-64
2023/06/19 06:27:56;;;;;;;8.70;5.50;;;21.90;99.90;;;;;;4988854;28;20040;-65
2023/06/19 06:30:22;;;;;;;7.97;5.78;;;22.00;99.90;;;;;;5002786;28;20034;-64
2023/06/19 06:32:48;;;;;;;8.52;5.95;;;22.00;99.90;;;;;;4989460;28;20304;-64
2023/06/19 06:35:13;;;;;;;9.18;5.78;;;22.00;99.90;;;;;;5009259;28;20121;-64
2023/06/19 06:37:40;;;;;;;7.35;5.72;;;22.00;99.90;;;;;;5007881;28;20132;-64
2023/06/19 06:40:10;;;;;;;8.63;6.40;;;22.00;99.90;;;;;;5011870;28;20046;-64
2023/06/19 06:42:36;;;;;;;7.40;6.32;;;22.00;99.90;;;;;;4985802;28;20046;-65
2023/06/19 06:45:03;;;;;;;9.63;6.00;;;22.00;99.90;;;;;;4990129;28;20377;-65
2023/06/19 06:47:29;;;;;;;8.85;7.20;;;22.10;99.90;;;;;;4973558;28;20169;-65
2023/06/19 06:49:54;;;;;;;9.93;6.80;;;22.10;99.90;;;;;;5000611;28;20049;-64
2023/06/19 06:52:20;;;;;;;7.93;6.63;;;22.10;99.90;;;;;;4985511;28;20034;-62
2023/06/19 06:54:46;;;;;;;8.40;6.80;;;22.10;99.90;;;;;;4963010;28;20100;-64
2023/06/19 06:57:11;;;;;;;12.07;6.90;;;22.10;99.90;;;;;;4991071;28;20050;-64
2023/06/19 06:59:37;;;;;;;8.70;5.97;;;22.10;99.90;;;;;;4983520;28;20033;-62
2023/06/19 07:02:03;;;;;;;8.82;6.57;;;22.10;99.90;;;;;;4982033;28;20045;-65
2023/06/19 07:04:28;;;;;;;8.98;5.90;;;22.10;99.90;;;;;;4989699;28;20076;-62
2023/06/19 07:06:54;;;;;;;8.55;6.18;;;22.10;99.90;;;;;;4985071;28;20038;-62
2023/06/19 07:09:21;;;;;;;8.48;7.03;;;22.00;99.90;;;;;;4980653;28;20045;-62
2023/06/19 07:11:46;;;;;;;9.55;6.10;;;21.90;99.90;;;;;;4983877;28;20510;-65
2023/06/19 07:14:12;;;;;;;10.80;6.70;;;21.90;99.90;;;;;;5006557;28;20043;-64
2023/06/19 07:16:38;;;;;;;10.75;7.65;;;21.80;99.90;;;;;;4991492;28;20046;-63
2023/06/19 07:19:03;;;;;;;7.72;6.43;;;21.70;99.90;;;;;;4989955;28;20084;-64
2023/06/19 07:21:30;;;;;;;7.82;6.25;;;21.60;99.90;;;;;;4991157;28;20036;-64
2023/06/19 07:23:57;;;;;;;8.80;7.00;;;21.50;99.90;;;;;;5001907;28;20049;-64
2023/06/19 07:26:22;;;;;;;8.13;6.57;;;21.50;99.90;;;;;;4999049;28;20042;-64
2023/06/19 07:28:48;;;;;;;7.90;6.88;;;21.60;99.90;;;;;;4991898;28;20038;-62
2023/06/19 07:31:13;;;;;;;9.70;7.05;;;21.80;99.90;;;;;;4983473;28;20685;-63
2023/06/19 07:33:39;;;;;;;10.15;7.40;;;21.90;99.90;;;;;;4992148;28;20034;-63
2023/06/19 07:36:05;;;;;;;9.05;7.72;;;21.90;99.90;;;;;;4988886;28;20046;-64
2023/06/19 07:38:30;;;;;;;8.38;6.97;;;21.90;99.90;;;;;;4982663;28;20036;-62
2023/06/19 07:40:56;;;;;;;8.90;7.25;;;21.90;99.90;;;;;;4989924;28;20041;-64
2023/06/19 07:43:24;;;;;;;8.52;7.20;;;21.90;99.90;;;;;;4996628;28;20037;-64
2023/06/19 07:45:50;;;;;;;9.38;7.20;;;21.90;99.90;;;;;;4989134;28;20092;-65
2023/06/19 07:48:16;;;;;;;9.98;6.40;;;21.90;99.90;;;;;;4984594;28;20034;-65
2023/06/19 07:50:42;;;;;;;8.73;6.25;;;21.90;99.90;;;;;;4991630;28;20026;-62
2023/06/19 07:53:07;;;;;;;8.75;6.00;;;21.90;99.90;;;;;;4991671;28;20133;-64
2023/06/19 07:55:35;;;;;;;7.90;5.65;;;22.00;99.90;;;;;;4994004;28;20747;-64
2023/06/19 07:58:00;;;;;;;6.15;5.55;;;22.10;99.90;;;;;;5002371;28;20124;-64
2023/06/19 08:00:26;;;;;;;6.78;5.18;;;22.10;99.90;;;;;;4993265;28;20048;-64
2023/06/19 08:02:52;;;;;;;7.60;5.32;;;22.10;99.90;;;;;;5000808;28;20048;-60
2023/06/19 08:05:18;;;;;;;6.82;4.93;;;22.10;99.90;;;;;;4989720;28;20074;-64
2023/06/19 08:07:44;;;;;;;6.28;5.50;;;22.30;99.90;;;;;;4985821;28;20061;-64
2023/06/19 08:10:10;;;;;;;7.45;5.82;;;22.30;99.90;;;;;;4992490;28;20065;-64
2023/06/19 08:12:36;;;;;;;7.30;5.38;;;22.30;99.90;;;;;;4985044;28;20030;-64
2023/06/19 08:15:02;;;;;;;7.40;5.53;;;22.30;99.90;;;;;;4995192;28;20439;-62
2023/06/19 08:17:27;;;;;;;6.20;5.40;;;22.40;99.90;;;;;;4989541;28;20035;-64
2023/06/19 08:19:53;;;;;;;5.93;5.15;;;22.50;99.90;;;;;;4993308;28;20543;-64
2023/06/19 08:22:18;;;;;;;9.88;5.80;;;22.60;99.90;;;;;;4982886;28;20023;-63
2023/06/19 08:24:44;;;;;;;7.00;5.40;;;22.80;99.90;;;;;;4990168;28;20515;-63
2023/06/19 08:27:09;;;;;;;10.60;5.72;;;22.80;99.90;;;;;;4992510;28;20374;-63
2023/06/19 08:29:35;;;;;;;7.50;5.85;;;22.70;99.90;;;;;;4997956;28;20034;-64
2023/06/19 08:32:01;;;;;;;6.95;5.93;;;22.50;99.90;;;;;;4994696;28;20060;-64
2023/06/19 08:34:27;;;;;;;7.25;5.85;;;22.40;99.90;;;;;;4991108;28;20061;-64
2023/06/19 08:36:53;;;;;;;8.27;6.25;;;22.30;99.90;;;;;;5001319;28;20471;-64
2023/06/19 08:39:20;;;;;;;7.65;6.05;;;22.20;99.90;;;;;;4992510;28;20125;-64
2023/06/19 08:41:45;;;;;;;7.03;5.82;;;22.00;99.90;;;;;;4984029;28;20121;-64
2023/06/19 08:44:11;;;;;;;8.40;6.18;;;21.80;99.90;;;;;;4990580;28;20133;-64
2023/06/19 08:46:41;;;;;;;7.05;5.90;;;21.70;99.90;;;;;;4990779;28;20161;-63
2023/06/19 08:49:09;;;;;;;10.57;6.70;;;21.70;99.90;;;;;;4976387;28;20579;-65
2023/06/19 08:51:35;;;;;;;6.72;5.93;;;21.70;99.90;;;;;;4986570;28;20030;-64
2023/06/19 08:54:03;;;;;;;7.65;6.25;;;21.70;99.90;;;;;;4985497;28;20035;-63
2023/06/19 08:56:33;;;;;;;9.27;6.80;;;21.80;99.90;;;;;;5000731;28;20052;-63
2023/06/19 08:59:08;;;;;;;8.15;6.88;;;21.90;99.90;;;;;;4980336;28;20174;-63
2023/06/19 09:01:34;;;;;;;10.43;7.50;;;22.00;99.90;;;;;;4996785;28;20117;-64
2023/06/19 09:04:07;;;;;;;11.82;8.25;;;22.10;99.90;;;;;;5007110;28;20124;-64
2023/06/19 09:06:32;;;;;;;15.25;8.40;;;22.10;99.90;;;;;;5007674;28;20443;-64
2023/06/19 09:08:59;;;;;;;10.20;8.85;;;22.40;99.90;;;;;;4993673;28;20504;-64
2023/06/19 09:11:25;;;;;;;12.45;10.70;;;22.60;99.90;;;;;;5005460;28;20637;-65
2023/06/19 09:13:58;;;;;;;11.55;10.35;;;22.70;99.90;;;;;;5002391;28;20040;-64
2023/06/19 09:16:26;;;;;;;11.25;9.95;;;22.80;99.90;;;;;;5001527;28;20049;-62
2023/06/19 09:18:51;;;;;;;11.93;10.55;;;22.80;99.90;;;;;;5007915;28;20377;-65
2023/06/19 09:21:24;;;;;;;12.35;10.18;;;22.80;99.90;;;;;;4975975;28;20041;-64
2023/06/19 09:23:53;;;;;;;12.35;11.15;;;22.80;99.90;;;;;;4987232;28;20344;-65
2023/06/19 09:26:20;;;;;;;12.63;11.20;;;22.70;99.90;;;;;;4984142;28;20042;-64
2023/06/19 09:28:46;;;;;;;14.57;11.65;;;22.80;99.90;;;;;;4983222;28;20117;-63
2023/06/19 09:31:12;;;;;;;13.52;11.85;;;23.00;99.90;;;;;;4979375;28;20030;-67
2023/06/19 09:33:39;;;;;;;14.30;11.95;;;23.30;99.90;;;;;;4973488;28;20398;-64
2023/06/19 09:36:06;;;;;;;12.80;11.50;;;23.60;99.80;;;;;;4974035;28;20050;-65
2023/06/19 09:38:34;;;;;;;15.90;11.95;;;23.70;98.80;;;;;;4983820;28;20124;-64
2023/06/19 09:41:04;;;;;;;15.45;12.32;;;23.90;98.60;;;;;;4983249;28;21781;-64
2023/06/19 09:43:34;;;;;;;13.17;11.80;;;23.90;97.50;;;;;;4988248;28;20031;-65
2023/06/19 09:46:01;;;;;;;13.43;11.85;;;23.80;97.20;;;;;;4990158;28;20034;-65
2023/06/19 09:48:30;;;;;;;14.05;11.77;;;23.90;97.80;;;;;;4985612;28;20035;-64
2023/06/19 09:51:05;;;;;;;14.43;12.80;;;23.90;97.30;;;;;;4983044;28;20401;-64
2023/06/19 09:53:33;;;;;;;13.45;12.05;;;23.80;97.30;;;;;;4989394;28;20034;-64
2023/06/19 09:55:58;;;;;;;14.07;12.13;;;23.70;97.90;;;;;;4977978;28;20042;-65
2023/06/19 09:58:25;;;;;;;13.57;12.15;;;23.70;97.90;;;;;;4988358;28;20057;-63
2023/06/19 10:00:51;;;;;;;14.82;11.35;;;23.70;98.00;;;;;;4984515;28;20518;-62
2023/06/19 10:03:17;;;;;;;10.35;9.38;;;23.90;97.60;;;;;;4994632;28;20042;-63
2023/06/19 10:05:43;;;;;;;11.30;8.98;;;24.00;97.20;;;;;;4983955;28;20046;-65
2023/06/19 10:08:09;;;;;;;10.75;7.88;;;24.10;97.20;;;;;;4986116;28;20049;-64
2023/06/19 10:10:36;;;;;;;9.32;7.80;;;24.00;97.00;;;;;;4978508;28;20042;-64
2023/06/19 10:13:13;;;;;;;11.75;8.20;;;23.90;97.40;;;;;;4984947;28;20046;-64
2023/06/19 10:15:43;;;;;;;11.57;8.32;;;24.00;97.20;;;;;;4986151;28;20124;-64
2023/06/19 10:18:17;;;;;;;10.10;7.60;;;24.00;97.00;;;;;;4988165;28;20169;-65
2023/06/19 10:20:44;;;;;;;12.77;7.93;;;24.00;96.80;;;;;;4982713;28;20038;-65
2023/06/19 10:47:35;;;;;;;14.75;10.80;;;24.10;96.70;;;;;;5290965;23;20045;-70
2023/06/19 10:56:43;;;;;;;14.73;10.52;;;24.10;96.60;;;;;;5114461;23;20425;-70
2023/06/19 11:01:50;;;;;;;13.80;10.07;;;24.30;96.40;;;;;;5236080;23;20054;-71
2023/06/19 11:04:16;;;;;;;14.07;9.63;;;24.50;96.20;;;;;;4951939;28;20074;-71
2023/06/19 11:06:43;;;;;;;17.02;10.57;;;24.30;96.10;;;;;;4940381;28;20078;-71
2023/06/19 11:09:11;;;;;;;11.98;9.15;;;24.50;96.00;;;;;;4948994;28;20039;-71
2023/06/19 11:11:47;;;;;;;12.20;10.23;;;24.50;96.00;;;;;;4941402;28;20127;-71
2023/06/19 11:34:56;;;;;;;12.52;9.32;;;25.30;94.20;;;;;;5253191;23;20525;-69
2023/06/19 11:37:22;;;;;;;10.63;9.13;;;25.40;94.30;;;;;;4963856;28;20069;-69
2023/06/19 11:39:50;;;;;;;11.20;8.20;;;25.00;94.10;;;;;;4960895;28;20041;-69
2023/06/19 11:42:19;;;;;;;12.43;8.77;;;25.00;94.40;;;;;;4952731;28;20050;-69
2023/06/19 11:45:02;;;;;;;11.32;9.00;;;24.70;94.40;;;;;;4964400;28;20131;-68
2023/06/19 12:03:09;;;;;;;13.15;9.68;;;25.20;93.50;;;;;;5690105;23;20058;-68
2023/06/19 12:05:35;;;;;;;13.75;9.75;;;25.20;93.70;;;;;;5000382;28;20560;-69
2023/06/19 12:08:04;;;;;;;16.67;10.18;;;25.20;93.60;;;;;;4989468;28;20046;-69
2023/06/19 12:44:10;;;;;;;14.02;11.32;;;25.00;93.10;;;;;;5154304;23;20062;-69
2023/06/19 12:46:35;;;;;;;13.80;10.93;;;25.10;93.10;;;;;;4930548;28;20520;-69
2023/06/19 12:54:24;;;;;;;13.82;10.70;;;25.30;92.90;;;;;;5626817;23;20061;-70
2023/06/19 12:56:49;;;;;;;13.73;11.18;;;25.50;92.90;;;;;;4957035;28;20051;-70
2023/06/19 13:13:18;;;;;;;13.05;10.98;;;26.00;91.10;;;;;;5345174;23;20051;-69
2023/06/19 13:15:44;;;;;;;13.30;10.82;;;26.00;90.70;;;;;;4979142;28;20114;-69
2023/06/19 13:18:10;;;;;;;13.65;10.20;;;26.20;90.80;;;;;;4993049;28;20115;-68
2023/06/19 13:52:10;;;;;;;14.07;10.50;;;27.20;85.80;;;;;;5481127;23;20064;-71
2023/06/19 13:54:36;;;;;;;17.30;10.60;;;27.20;85.30;;;;;;4982825;28;20038;-71
2023/06/19 13:57:02;;;;;;;13.43;9.98;;;27.20;85.60;;;;;;4986245;28;20599;-71
2023/06/19 13:59:28;;;;;;;12.13;9.95;;;27.20;85.60;;;;;;4986925;28;20748;-71
2023/06/19 14:01:54;;;;;;;13.48;10.13;;;27.30;86.00;;;;;;4986986;28;20117;-71
2023/06/19 14:11:50;;;;;;;12.57;10.15;;;28.20;82.20;;;;;;5205088;23;20427;-69
2023/06/19 14:14:16;;;;;;;12.85;9.85;;;28.40;84.60;;;;;;4990878;28;20485;-69
2023/06/19 14:30:44;;;;;;;11.45;8.95;;;27.90;81.80;;;;;;5077996;23;20061;-70
2023/06/19 14:33:14;;;;;;;12.65;8.65;;;28.10;81.40;;;;;;5027919;28;20511;-70
2023/06/19 14:35:40;;;;;;;11.05;8.40;;;28.50;81.10;;;;;;5024432;28;20518;-69
2023/06/19 14:38:06;;;;;;;11.57;8.05;;;28.80;80.10;;;;;;5029446;28;20045;-70
2023/06/19 14:40:31;;;;;;;10.52;7.65;;;28.60;79.10;;;;;;5028875;28;20060;-70
2023/06/19 14:42:57;;;;;;;10.82;7.75;;;28.90;79.40;;;;;;5051580;28;20384;-70
2023/06/19 14:45:22;;;;;;;8.43;6.43;;;29.20;78.50;;;;;;5036153;28;20075;-70
2023/06/19 14:47:48;;;;;;;12.25;7.30;;;29.40;77.60;;;;;;5022853;28;20045;-70
2023/06/19 14:50:14;;;;;;;13.70;7.32;;;29.40;76.30;;;;;;5036152;28;20045;-70
2023/06/19 14:52:39;;;;;;;9.02;6.07;;;29.50;75.80;;;;;;5040567;28;20127;-72
2023/06/19 14:55:05;;;;;;;7.47;6.22;;;29.40;74.90;;;;;;5040772;28;20076;-72
2023/06/19 14:57:31;;;;;;;10.38;5.93;;;29.40;74.00;;;;;;5030841;28;20494;-72
2023/06/19 14:59:56;;;;;;;6.40;5.70;;;29.80;74.00;;;;;;5022961;28;20040;-72
2023/06/19 15:02:22;;;;;;;8.02;5.88;;;30.30;73.20;;;;;;5062643;28;20032;-72
2023/06/19 15:04:47;;;;;;;7.22;5.60;;;29.90;71.80;;;;;;5032817;28;20036;-72
2023/06/19 15:07:13;;;;;;;6.97;5.70;;;29.70;70.20;;;;;;5053440;23;20483;-66
2023/06/19 15:09:38;;;;;;;7.50;5.45;;;29.80;69.60;;;;;;5040169;28;20065;-64
2023/06/19 15:12:05;;;;;;;8.43;5.43;;;30.10;69.80;;;;;;5038207;28;20095;-64
2023/06/19 15:14:30;;;;;;;7.22;5.10;;;30.30;69.40;;;;;;5023769;28;20064;-64
2023/06/19 15:16:56;;;;;;;7.30;5.20;;;30.70;68.10;;;;;;5043161;28;20457;-65
2023/06/19 15:19:23;;;;;;;5.22;4.50;;;31.00;67.40;;;;;;5042110;28;20049;-65
2023/06/19 15:21:49;;;;;;;8.20;4.70;;;31.10;65.80;;;;;;5039554;28;20464;-63
2023/06/19 15:24:15;;;;;;;7.88;5.10;;;30.90;64.80;;;;;;5047181;28;20035;-64
2023/06/19 15:26:40;;;;;;;5.18;4.25;;;30.80;64.80;;;;;;5051213;28;20025;-64
2023/06/19 15:29:06;;;;;;;6.13;4.60;;;30.50;64.00;;;;;;5060980;28;20400;-65
2023/06/19 15:31:31;;;;;;;7.07;4.57;;;30.60;64.00;;;;;;5071802;28;20087;-64
2023/06/19 15:33:57;;;;;;;6.15;4.60;;;30.40;63.10;;;;;;5067089;28;20478;-64
2023/06/19 15:36:23;;;;;;;12.20;5.45;;;30.50;62.50;;;;;;5056280;28;20107;-64
2023/06/19 15:38:49;;;;;;;6.60;4.80;;;30.60;62.50;;;;;;5042974;28;20060;-64
2023/06/19 15:41:14;;;;;;;5.57;4.30;;;30.90;61.80;;;;;;5046517;28;20090;-65
2023/06/19 15:43:41;;;;;;;6.28;4.57;;;31.30;61.90;;;;;;5053201;28;20040;-65